Whitelaw, Wisconsin
Current Conditions -  °F | °C
As of 8:56 PM on Sunday 21 Dec 2014 (Local Time) from KMTW Reporting Station
Overcast Overcast  
Wind Chill: 27°   Ceiling: 1500
Heat Index: 37°   Visibility: 9mi
Dew Point: 34°   Wind: 18mph
Humidity: 89%   Direction: 180°S
Pressure: 30.02"   Gusts: NA
Location:  44.14°N, 87.82°W
Report Text: KMTW 220256Z AUTO 18016KT 9SM OVC015 03/01 A3002 RMK AO2 UPB08E19B36E49 SLP190 P0000 60000 T00280011 58006
Loading
Personal Weather Stations






























Interactive Weather Map New forecast layout! Learn more

10-Day Weather Forecast

Advertisements
Track Severe Weather on mobile